createdAt,value
2018-10-09T00:00:07.538Z,98.17
2018-10-09T00:02:36.907Z,98.48
2018-10-09T00:05:06.546Z,98.41
2018-10-09T00:07:35.883Z,99.97
2018-10-09T00:10:05.307Z,98.02
2018-10-09T00:12:34.692Z,99.41
2018-10-09T00:15:04.019Z,97.90
2018-10-09T00:17:33.384Z,98.39
2018-10-09T00:20:02.864Z,98.04
2018-10-09T00:22:32.384Z,100.00
2018-10-09T00:25:01.774Z,100.00
2018-10-09T00:27:31.166Z,100.00
2018-10-09T00:30:00.479Z,100.00
2018-10-09T00:32:29.834Z,100.00
2018-10-09T00:34:59.176Z,100.00
2018-10-09T00:37:28.536Z,100.00
2018-10-09T00:39:57.896Z,100.00
2018-10-09T00:42:27.255Z,100.00
2018-10-09T00:44:56.651Z,100.00
2018-10-09T00:47:26.043Z,100.00
2018-10-09T00:49:55.408Z,100.00
2018-10-09T00:52:24.734Z,100.00
2018-10-09T00:54:54.114Z,100.00
2018-10-09T00:57:23.471Z,100.00
2018-10-09T00:59:52.855Z,100.00
2018-10-09T01:02:22.295Z,100.00
2018-10-09T01:04:51.676Z,100.00
2018-10-09T01:07:21.388Z,100.00
2018-10-09T01:09:50.867Z,100.00
2018-10-09T01:12:20.221Z,100.00
2018-10-09T01:14:50.855Z,100.00
2018-10-09T01:17:20.278Z,100.00
2018-10-09T01:19:49.787Z,100.00
2018-10-09T01:22:19.141Z,100.00
2018-10-09T01:24:48.594Z,100.00
2018-10-09T01:27:18.038Z,100.00
2018-10-09T01:29:47.442Z,100.00
2018-10-09T01:32:16.911Z,100.00
2018-10-09T01:34:46.343Z,100.00
2018-10-09T01:37:15.730Z,100.00
2018-10-09T01:39:45.104Z,100.00
2018-10-09T01:42:14.492Z,100.00
2018-10-09T01:44:43.838Z,100.00
2018-10-09T01:47:13.202Z,100.00
2018-10-09T01:49:42.514Z,95.26
2018-10-09T01:52:11.878Z,97.24
2018-10-09T01:54:41.231Z,98.63
2018-10-09T01:57:10.575Z,98.79
2018-10-09T01:59:39.898Z,99.38
2018-10-09T02:02:09.215Z,100.00
2018-10-09T02:04:38.576Z,100.00
2018-10-09T02:07:07.947Z,100.00
2018-10-09T02:09:37.283Z,100.00
2018-10-09T02:12:06.575Z,100.00
2018-10-09T02:14:35.955Z,100.00
2018-10-09T02:17:05.283Z,100.00
2018-10-09T02:19:34.640Z,100.00
2018-10-09T02:22:04.006Z,97.87
2018-10-09T02:24:33.348Z,99.47
2018-10-09T02:27:02.735Z,100.00
2018-10-09T02:29:32.110Z,100.00
2018-10-09T02:32:01.437Z,100.00
2018-10-09T02:34:30.751Z,100.00
2018-10-09T02:37:00.111Z,100.00
2018-10-09T02:39:29.447Z,100.00
2018-10-09T02:41:58.763Z,100.00
2018-10-09T02:44:28.227Z,100.00
2018-10-09T02:46:57.522Z,100.00
2018-10-09T02:49:26.806Z,100.00
2018-10-09T02:51:56.145Z,100.00
2018-10-09T02:54:25.492Z,100.00
2018-10-09T02:56:54.822Z,100.00
2018-10-09T02:59:24.266Z,99.67
2018-10-09T03:01:53.853Z,100.00
2018-10-09T03:04:23.243Z,100.00
2018-10-09T03:06:52.610Z,99.62
2018-10-09T03:09:21.946Z,97.93
2018-10-09T03:11:51.338Z,97.10
2018-10-09T03:14:20.660Z,99.60
2018-10-09T03:16:50.042Z,100.00
2018-10-09T03:19:19.533Z,100.00
2018-10-09T03:21:48.899Z,100.00
2018-10-09T03:24:18.290Z,98.87
2018-10-09T03:26:47.699Z,97.46
2018-10-09T03:29:17.052Z,99.04
2018-10-09T03:31:46.490Z,100.00
2018-10-09T03:34:15.855Z,100.00
2018-10-09T03:36:45.179Z,100.00
2018-10-09T03:39:14.553Z,100.00
2018-10-09T03:41:43.886Z,100.00
2018-10-09T03:44:13.294Z,100.00
2018-10-09T03:46:42.687Z,100.00
2018-10-09T03:49:12.136Z,100.00
2018-10-09T03:51:41.543Z,100.00
2018-10-09T03:54:10.998Z,100.00
2018-10-09T03:56:40.358Z,100.00
2018-10-09T03:59:09.743Z,99.87
2018-10-09T04:01:39.076Z,100.00
2018-10-09T04:04:08.424Z,100.00
2018-10-09T04:06:37.799Z,97.31
2018-10-09T04:09:11.573Z,96.03
2018-10-09T04:11:41.157Z,96.28
2018-10-09T04:14:10.494Z,96.52
2018-10-09T04:16:39.794Z,96.46
2018-10-09T04:19:09.142Z,96.68
2018-10-09T04:21:38.498Z,96.70
2018-10-09T04:24:07.817Z,97.43
2018-10-09T04:26:37.114Z,96.31
2018-10-09T04:29:06.518Z,96.36
2018-10-09T04:31:35.844Z,96.23
2018-10-09T04:34:05.226Z,98.94
2018-10-09T04:36:34.545Z,100.00
2018-10-09T04:39:05.419Z,100.00
2018-10-09T04:41:34.772Z,100.00
2018-10-09T04:44:04.201Z,100.00
2018-10-09T04:46:33.624Z,100.00
2018-10-09T04:49:03.007Z,100.00
2018-10-09T04:51:32.785Z,100.00
2018-10-09T04:54:02.160Z,100.00
2018-10-09T04:56:31.465Z,100.00
2018-10-09T04:59:00.800Z,100.00
2018-10-09T05:01:30.120Z,100.00
2018-10-09T05:03:59.692Z,98.92
2018-10-09T05:06:29.008Z,99.80
2018-10-09T05:08:58.429Z,99.94
2018-10-09T05:11:27.808Z,97.21
2018-10-09T05:13:57.151Z,96.65
2018-10-09T05:16:26.493Z,96.50
2018-10-09T05:18:55.907Z,96.39
2018-10-09T05:21:25.307Z,95.71
2018-10-09T05:23:54.661Z,96.39
2018-10-09T05:26:24.083Z,95.48
2018-10-09T05:28:53.442Z,95.14
2018-10-09T05:31:22.955Z,96.40
2018-10-09T05:33:52.269Z,99.12
2018-10-09T05:36:21.652Z,100.00
2018-10-09T05:38:51.087Z,100.00
2018-10-09T05:41:21.268Z,100.00
2018-10-09T05:43:50.634Z,100.00
2018-10-09T05:46:20.031Z,99.37
2018-10-09T05:48:49.358Z,95.83
2018-10-09T05:51:18.844Z,96.78
2018-10-09T05:53:48.217Z,97.65
2018-10-09T05:56:17.607Z,97.49
2018-10-09T05:58:46.974Z,95.28
2018-10-09T06:01:16.368Z,95.26
2018-10-09T06:03:45.715Z,94.44
2018-10-09T06:06:15.116Z,95.39
2018-10-09T06:08:44.497Z,94.97
2018-10-09T06:11:14.179Z,93.29
2018-10-09T06:13:43.787Z,93.69
2018-10-09T06:16:13.119Z,93.27
2018-10-09T06:18:42.532Z,94.33
2018-10-09T06:21:11.965Z,92.34
2018-10-09T06:23:41.344Z,92.95
2018-10-09T06:26:10.708Z,90.77
2018-10-09T06:28:40.043Z,89.32
2018-10-09T06:31:09.504Z,89.18
2018-10-09T06:33:38.879Z,89.37
2018-10-09T06:36:08.463Z,89.13
2018-10-09T06:38:37.851Z,88.49
2018-10-09T06:41:07.260Z,88.12
2018-10-09T06:43:36.705Z,88.13
2018-10-09T06:46:06.023Z,87.64
2018-10-09T06:48:35.322Z,87.17
2018-10-09T06:51:04.698Z,87.58
2018-10-09T06:53:34.895Z,85.40
2018-10-09T06:56:04.211Z,85.08
2018-10-09T06:58:33.552Z,83.66
2018-10-09T07:01:03.012Z,83.33
2018-10-09T07:03:32.444Z,81.67
2018-10-09T07:06:01.906Z,82.58
2018-10-09T07:08:31.140Z,81.60
2018-10-09T07:11:00.546Z,81.23
2018-10-09T07:13:30.185Z,80.18
2018-10-09T07:15:59.555Z,79.60
2018-10-09T07:18:28.986Z,78.11
2018-10-09T07:20:58.342Z,76.71
2018-10-09T07:23:27.658Z,76.92
2018-10-09T07:25:57.102Z,76.28
2018-10-09T07:28:26.474Z,75.09
2018-10-09T07:30:55.901Z,75.83
2018-10-09T07:33:25.202Z,74.06
2018-10-09T07:35:54.528Z,75.56
2018-10-09T07:38:24.102Z,75.98
2018-10-09T07:40:53.651Z,78.99
2018-10-09T07:43:23.052Z,81.30
2018-10-09T07:45:52.371Z,80.47
2018-10-09T07:48:21.763Z,82.07
2018-10-09T07:50:51.132Z,81.76
2018-10-09T07:53:20.484Z,83.68
2018-10-09T07:55:49.815Z,82.64
2018-10-09T07:58:19.117Z,82.86
2018-10-09T08:00:48.505Z,82.59
2018-10-09T08:03:17.804Z,79.69
2018-10-09T08:05:47.154Z,79.42
2018-10-09T08:08:16.836Z,79.24
2018-10-09T08:10:46.218Z,80.70
2018-10-09T08:13:15.573Z,81.35
2018-10-09T08:15:44.931Z,79.30
2018-10-09T08:18:14.240Z,79.69
2018-10-09T08:20:43.570Z,79.70
2018-10-09T08:23:12.919Z,76.46
2018-10-09T08:25:42.253Z,76.04
2018-10-09T08:28:11.585Z,75.20
2018-10-09T08:30:40.947Z,75.45
2018-10-09T08:33:10.336Z,75.76
2018-10-09T08:35:39.731Z,75.91
2018-10-09T08:38:09.171Z,77.61
2018-10-09T08:40:38.590Z,77.62
2018-10-09T08:43:07.912Z,77.43
2018-10-09T08:45:37.246Z,78.44
2018-10-09T08:48:06.687Z,73.31
2018-10-09T08:50:36.117Z,73.78
2018-10-09T08:53:05.459Z,74.18
2018-10-09T08:55:34.873Z,75.54
2018-10-09T08:58:04.207Z,72.59
2018-10-09T09:00:33.686Z,66.68
2018-10-09T09:03:03.053Z,65.89
2018-10-09T09:05:32.408Z,68.77
2018-10-09T09:08:01.775Z,70.02
2018-10-09T09:10:31.036Z,71.46
2018-10-09T09:13:00.387Z,72.88
2018-10-09T09:15:29.877Z,71.59
2018-10-09T09:17:59.183Z,70.96
2018-10-09T09:20:28.796Z,63.65
2018-10-09T09:22:58.254Z,55.92
2018-10-09T09:25:27.656Z,49.55
2018-10-09T09:27:57.116Z,49.65
2018-10-09T09:30:26.520Z,57.97
2018-10-09T09:32:55.912Z,56.64
2018-10-09T09:35:25.293Z,60.78
2018-10-09T09:37:54.644Z,62.96
2018-10-09T09:40:23.927Z,64.77
2018-10-09T09:42:53.303Z,67.36
2018-10-09T09:45:22.618Z,66.49
2018-10-09T09:47:51.923Z,65.07
2018-10-09T09:50:21.268Z,62.49
2018-10-09T09:52:50.670Z,62.65
2018-10-09T09:55:19.994Z,63.77
2018-10-09T09:57:49.388Z,66.09
2018-10-09T10:00:24.114Z,66.33
2018-10-09T10:02:53.480Z,64.21
2018-10-09T10:05:22.812Z,68.41
2018-10-09T10:07:52.217Z,64.57
2018-10-09T10:10:21.592Z,65.85
2018-10-09T10:12:50.971Z,64.71
2018-10-09T10:15:20.392Z,67.54
2018-10-09T10:17:49.739Z,68.49
2018-10-09T10:20:19.158Z,68.29
2018-10-09T10:22:48.522Z,62.52
2018-10-09T10:25:17.831Z,62.76
2018-10-09T10:27:47.275Z,58.67
2018-10-09T10:30:16.755Z,56.46
2018-10-09T10:32:46.171Z,54.68
2018-10-09T10:35:15.653Z,58.90
2018-10-09T10:37:45.049Z,60.61
2018-10-09T10:40:14.536Z,60.30
2018-10-09T10:42:44.188Z,60.15
2018-10-09T10:45:13.658Z,62.32
2018-10-09T10:47:43.171Z,64.84
2018-10-09T10:50:12.618Z,63.55
2018-10-09T10:52:42.075Z,63.19
2018-10-09T10:55:11.543Z,61.52
2018-10-09T10:57:40.868Z,62.76
2018-10-09T11:00:10.296Z,59.53
2018-10-09T11:02:39.640Z,52.20
2018-10-09T11:05:08.942Z,58.55
2018-10-09T11:07:38.291Z,61.07
2018-10-09T11:10:08.276Z,64.63
2018-10-09T11:12:37.622Z,61.21
2018-10-09T11:15:06.956Z,59.21
2018-10-09T11:17:36.297Z,61.34
2018-10-09T11:20:05.758Z,64.56
2018-10-09T11:22:35.117Z,63.19
2018-10-09T11:25:04.523Z,65.81
2018-10-09T11:27:35.169Z,61.78
2018-10-09T11:30:05.825Z,64.95
2018-10-09T11:32:35.304Z,67.97
2018-10-09T11:35:04.667Z,67.67
2018-10-09T11:37:34.145Z,69.81
2018-10-09T11:40:03.583Z,70.29
2018-10-09T11:42:33.051Z,68.16
2018-10-09T11:45:02.499Z,61.23
2018-10-09T11:47:31.880Z,63.60
2018-10-09T11:50:01.256Z,65.04
2018-10-09T11:52:30.606Z,70.24
2018-10-09T11:54:59.974Z,69.47
2018-10-09T11:57:29.331Z,70.86
2018-10-09T11:59:58.756Z,68.57
2018-10-09T12:02:29.102Z,69.45
2018-10-09T12:04:58.460Z,58.27
2018-10-09T12:07:27.998Z,54.85
2018-10-09T12:09:57.581Z,51.81
2018-10-09T12:12:26.937Z,57.51
2018-10-09T12:14:56.263Z,49.71
2018-10-09T12:17:25.683Z,52.05
2018-10-09T12:19:55.156Z,47.84
2018-10-09T12:22:24.464Z,53.78
2018-10-09T12:24:53.826Z,53.51
2018-10-09T12:27:23.159Z,54.20
2018-10-09T12:29:52.776Z,58.09
2018-10-09T12:32:22.207Z,61.06
2018-10-09T12:34:51.551Z,63.25
2018-10-09T12:37:21.851Z,57.69
2018-10-09T12:39:51.252Z,54.15
2018-10-09T12:42:20.585Z,56.27
2018-10-09T12:44:49.968Z,51.14
2018-10-09T12:47:19.257Z,44.65
2018-10-09T12:49:48.591Z,41.70
2018-10-09T12:52:17.859Z,57.53
2018-10-09T12:54:47.312Z,44.32
2018-10-09T12:57:16.940Z,41.63
2018-10-09T12:59:46.263Z,41.36
2018-10-09T13:02:15.592Z,41.63
2018-10-09T13:04:44.947Z,44.57
2018-10-09T13:07:14.230Z,45.38
2018-10-09T13:09:43.935Z,43.83
2018-10-09T13:12:13.220Z,45.88
2018-10-09T13:14:42.493Z,52.29
2018-10-09T13:17:11.881Z,45.49
2018-10-09T13:19:41.186Z,42.16
2018-10-09T13:22:10.765Z,42.93
2018-10-09T13:24:39.833Z,50.10
2018-10-09T13:27:09.840Z,46.73
2018-10-09T13:29:39.174Z,54.02
2018-10-09T13:32:08.447Z,60.16
2018-10-09T13:34:37.915Z,62.39
2018-10-09T13:37:07.149Z,63.80
2018-10-09T13:39:36.503Z,60.82
2018-10-09T13:42:05.911Z,61.63
2018-10-09T13:44:35.277Z,66.49
2018-10-09T13:47:04.632Z,63.10
2018-10-09T13:49:33.983Z,67.24
2018-10-09T13:52:03.399Z,67.06
2018-10-09T13:54:32.782Z,66.93
2018-10-09T13:57:02.126Z,67.56
2018-10-09T13:59:31.513Z,67.83
2018-10-09T14:02:00.889Z,68.42
2018-10-09T14:04:30.260Z,67.82
2018-10-09T14:06:59.577Z,66.46
2018-10-09T14:09:28.935Z,67.38
2018-10-09T14:11:58.337Z,70.01
2018-10-09T14:14:27.748Z,69.23
2018-10-09T14:16:57.105Z,69.07
2018-10-09T14:19:26.830Z,68.24
2018-10-09T14:21:56.231Z,69.59
2018-10-09T14:24:26.823Z,69.50
2018-10-09T14:26:56.155Z,71.42
2018-10-09T14:29:25.505Z,72.47
2018-10-09T14:31:54.768Z,71.99
2018-10-09T14:34:24.085Z,71.81
2018-10-09T14:36:53.378Z,73.70
2018-10-09T14:39:22.826Z,74.55
2018-10-09T14:41:52.237Z,75.03
2018-10-09T14:44:21.589Z,75.48
2018-10-09T14:46:50.864Z,74.58
2018-10-09T14:49:20.164Z,73.36
2018-10-09T14:51:49.580Z,77.13
2018-10-09T14:54:19.020Z,75.47
2018-10-09T14:56:48.327Z,77.23
2018-10-09T14:59:17.643Z,77.19
2018-10-09T15:01:46.990Z,76.84
2018-10-09T15:04:16.380Z,73.88
2018-10-09T15:06:45.649Z,72.78
2018-10-09T15:09:15.111Z,75.76
2018-10-09T15:11:44.855Z,77.38
2018-10-09T15:14:14.270Z,78.81
2018-10-09T15:16:43.689Z,79.16
2018-10-09T15:19:12.968Z,79.58
2018-10-09T15:21:42.295Z,79.62
2018-10-09T15:24:11.567Z,80.60
2018-10-09T15:26:40.982Z,81.22
2018-10-09T15:29:10.302Z,80.07
2018-10-09T15:31:39.644Z,81.46
2018-10-09T15:34:08.952Z,80.92
2018-10-09T15:36:38.313Z,79.29
2018-10-09T15:39:10.877Z,78.70
2018-10-09T15:41:40.334Z,79.24
2018-10-09T15:44:09.579Z,79.47
2018-10-09T15:46:38.914Z,83.14
2018-10-09T15:49:08.215Z,81.78
2018-10-09T15:51:37.524Z,82.99
2018-10-09T15:54:06.811Z,83.47
2018-10-09T15:56:36.591Z,84.59
2018-10-09T15:59:06.470Z,82.03
2018-10-09T16:01:35.798Z,79.42
2018-10-09T16:04:05.290Z,78.32
2018-10-09T16:06:34.787Z,77.30
2018-10-09T16:09:05.377Z,79.55
2018-10-09T16:11:35.694Z,80.09
2018-10-09T16:14:05.254Z,80.11
2018-10-09T16:16:34.619Z,79.86
2018-10-09T16:19:04.066Z,78.84
2018-10-09T16:21:33.517Z,79.54
2018-10-09T16:24:02.921Z,78.45
2018-10-09T16:26:32.210Z,77.17
2018-10-09T16:29:01.516Z,77.39
2018-10-09T16:31:30.901Z,76.72
2018-10-09T16:34:00.192Z,79.03
2018-10-09T16:36:29.569Z,77.65
2018-10-09T16:38:59.002Z,78.72
2018-10-09T16:41:28.332Z,81.07
2018-10-09T16:43:57.606Z,82.20
2018-10-09T16:46:26.961Z,82.32
2018-10-09T16:48:56.269Z,82.94
2018-10-09T16:51:25.592Z,82.94
2018-10-09T16:53:54.908Z,81.72
2018-10-09T16:56:24.239Z,83.93
2018-10-09T16:58:53.565Z,84.93
2018-10-09T17:01:22.891Z,82.73
2018-10-09T17:03:52.197Z,83.38
2018-10-09T17:06:21.530Z,84.08
2018-10-09T17:08:50.846Z,83.53
2018-10-09T17:11:20.213Z,84.57
2018-10-09T17:13:49.576Z,87.77
2018-10-09T17:16:18.901Z,88.16
2018-10-09T17:18:48.205Z,87.10
2018-10-09T17:21:17.528Z,88.21
2018-10-09T17:23:47.494Z,86.90
2018-10-09T17:26:16.868Z,86.77
2018-10-09T17:28:46.174Z,85.28
2018-10-09T17:31:15.535Z,85.50
2018-10-09T17:33:44.875Z,86.00
2018-10-09T17:36:14.270Z,86.76
2018-10-09T17:38:43.580Z,87.08
2018-10-09T17:41:12.902Z,87.55
2018-10-09T17:43:42.267Z,87.91
2018-10-09T17:46:11.658Z,87.96
2018-10-09T17:48:41.167Z,88.14
2018-10-09T17:51:10.455Z,89.15
2018-10-09T17:53:39.825Z,90.60
2018-10-09T17:56:09.093Z,92.55
2018-10-09T17:58:38.387Z,93.21
2018-10-09T18:01:07.688Z,91.95
2018-10-09T18:03:37.036Z,92.72
2018-10-09T18:06:06.380Z,94.55
2018-10-09T18:08:35.766Z,95.35
2018-10-09T18:11:05.054Z,95.98
2018-10-09T18:13:34.299Z,96.19
2018-10-09T18:16:03.636Z,96.25
2018-10-09T18:18:32.943Z,96.56
2018-10-09T18:21:02.315Z,95.97
2018-10-09T18:23:31.607Z,95.68
2018-10-09T18:26:01.644Z,95.74
2018-10-09T18:28:31.028Z,95.56
2018-10-09T18:31:00.394Z,95.74
2018-10-09T18:33:29.721Z,94.58
2018-10-09T18:35:59.009Z,92.41
2018-10-09T18:38:28.350Z,94.51
2018-10-09T18:40:57.797Z,94.50
2018-10-09T18:43:27.203Z,95.09
2018-10-09T18:45:56.596Z,94.22
2018-10-09T18:48:25.887Z,94.85
2018-10-09T18:50:55.219Z,94.32
2018-10-09T18:53:24.525Z,95.69
2018-10-09T18:55:53.827Z,95.41
2018-10-09T18:58:23.200Z,95.97
2018-10-09T19:00:52.501Z,95.76
2018-10-09T19:03:21.857Z,93.53
2018-10-09T19:05:51.196Z,91.49
2018-10-09T19:08:20.577Z,93.34
2018-10-09T19:10:49.890Z,92.27
2018-10-09T19:13:19.600Z,92.77
2018-10-09T19:15:48.967Z,93.89
2018-10-09T19:18:18.351Z,94.86
2018-10-09T19:20:47.696Z,95.90
2018-10-09T19:23:17.028Z,94.80
2018-10-09T19:25:46.324Z,92.56
2018-10-09T19:28:15.738Z,93.59
2018-10-09T19:30:45.319Z,94.11
2018-10-09T19:33:14.867Z,90.17
2018-10-09T19:35:44.213Z,92.16
2018-10-09T19:38:13.513Z,93.76
2018-10-09T19:40:42.854Z,94.72
2018-10-09T19:43:12.185Z,95.20
2018-10-09T19:45:41.545Z,94.90
2018-10-09T19:48:10.841Z,93.44
2018-10-09T19:50:40.092Z,92.71
2018-10-09T19:53:09.377Z,90.83
2018-10-09T19:55:38.698Z,90.71
2018-10-09T19:58:07.975Z,92.98
2018-10-09T20:00:37.285Z,92.29
2018-10-09T20:03:06.817Z,92.86
2018-10-09T20:05:36.154Z,92.07
2018-10-09T20:08:05.495Z,91.96
2018-10-09T20:10:34.817Z,93.62
2018-10-09T20:13:04.127Z,93.85
2018-10-09T20:15:33.422Z,90.99
2018-10-09T20:18:02.797Z,90.84
2018-10-09T20:20:32.147Z,90.87
2018-10-09T20:23:01.498Z,90.30
2018-10-09T20:25:30.765Z,89.65
2018-10-09T20:28:00.084Z,89.29
2018-10-09T20:30:29.367Z,89.83
2018-10-09T20:32:58.746Z,90.12
2018-10-09T20:35:28.054Z,92.45
2018-10-09T20:37:57.376Z,93.78
2018-10-09T20:40:26.749Z,91.75
2018-10-09T20:42:56.127Z,91.39
2018-10-09T20:45:25.447Z,93.51
2018-10-09T20:47:54.751Z,93.73
2018-10-09T20:50:24.081Z,92.27
2018-10-09T20:52:53.764Z,94.14
2018-10-09T20:55:23.089Z,92.42
2018-10-09T20:57:52.423Z,92.50
2018-10-09T21:00:21.765Z,93.99
2018-10-09T21:02:51.120Z,94.97
2018-10-09T21:05:20.420Z,94.90
2018-10-09T21:07:49.709Z,92.08
2018-10-09T21:10:18.983Z,92.09
2018-10-09T21:12:48.375Z,90.50
2018-10-09T21:15:17.659Z,90.55
2018-10-09T21:17:47.093Z,91.30
2018-10-09T21:20:16.295Z,93.50
2018-10-09T21:22:45.585Z,95.26
2018-10-09T21:25:14.850Z,94.95
2018-10-09T21:27:44.144Z,94.71
2018-10-09T21:30:13.464Z,95.36
2018-10-09T21:32:42.775Z,96.25
2018-10-09T21:35:12.085Z,95.60
2018-10-09T21:37:41.394Z,91.75
2018-10-09T21:40:10.653Z,93.28
2018-10-09T21:42:40.277Z,94.53
2018-10-09T21:45:09.633Z,95.97
2018-10-09T21:47:43.076Z,95.55
2018-10-09T21:50:12.408Z,93.92
2018-10-09T21:52:41.718Z,95.30
2018-10-09T21:55:11.944Z,96.12
2018-10-09T21:57:41.342Z,96.72
2018-10-09T22:00:11.051Z,95.73
2018-10-09T22:02:41.607Z,93.90
2018-10-09T22:05:10.977Z,92.65
2018-10-09T22:07:41.233Z,91.90
2018-10-09T22:10:10.528Z,94.06
2018-10-09T22:12:39.816Z,92.05
2018-10-09T22:15:09.168Z,93.45
2018-10-09T22:17:38.463Z,92.26
2018-10-09T22:20:07.768Z,91.65
2018-10-09T22:22:37.165Z,92.23
2018-10-09T22:25:06.537Z,91.88
2018-10-09T22:27:35.916Z,93.01
2018-10-09T22:30:05.637Z,92.13
2018-10-09T22:32:34.919Z,92.26
2018-10-09T22:35:04.260Z,92.43
2018-10-09T22:37:33.532Z,92.50
2018-10-09T22:40:02.897Z,93.80
2018-10-09T22:42:32.206Z,93.94
2018-10-09T22:45:01.496Z,95.27
2018-10-09T22:47:30.825Z,93.28
2018-10-09T22:50:00.181Z,93.38
2018-10-09T22:52:29.487Z,93.49
2018-10-09T22:54:58.776Z,95.76
2018-10-09T22:57:28.491Z,97.40
2018-10-09T22:59:57.834Z,98.29
2018-10-09T23:02:27.121Z,99.38
2018-10-09T23:04:56.404Z,99.50
2018-10-09T23:07:25.710Z,100.00
2018-10-09T23:09:55.143Z,99.62
2018-10-09T23:12:24.412Z,99.62
2018-10-09T23:14:53.763Z,99.72
2018-10-09T23:17:23.104Z,98.07
2018-10-09T23:19:52.333Z,95.96
2018-10-09T23:22:21.708Z,96.79
2018-10-09T23:24:50.998Z,94.87
2018-10-09T23:27:20.322Z,96.19
2018-10-09T23:29:49.625Z,95.67
2018-10-09T23:32:18.919Z,95.39
2018-10-09T23:34:48.238Z,94.64
2018-10-09T23:37:17.580Z,94.88
2018-10-09T23:39:46.858Z,94.85
2018-10-09T23:42:16.173Z,95.38
2018-10-09T23:44:45.507Z,95.93
2018-10-09T23:47:14.850Z,95.27
2018-10-09T23:49:44.203Z,96.31
2018-10-09T23:52:13.459Z,98.03
2018-10-09T23:54:42.793Z,96.68
2018-10-09T23:57:12.103Z,97.15
2018-10-09T23:59:41.406Z,95.07
